Ocilla, GA

12:59 PM EDT on July 13, 2014 (GMT -0400)
Fitzgerald Municipal (KFZG) Elev 364 ft | 31.68 °N, 83.27 °W | Change Station

Current weather conditions updated 24 minutes ago

Scattered Clouds
Scattered Clouds
88 °F
Feels Like 92 °F
N
7
Wind Variable Wind from WNW

Today is forecast to be nearly the same temperature as yesterday. Thunderstorms likely early tonight.

Today
High -- | Low -- °F
--% Chance of Precip.
Yesterday
High -- | Low -- °F
Precip. -- in
6:37 AM 8:39 PM
Full, 98% visible
Pressure 30.17 in
Visibility 10.0 miles
Clouds Scattered Clouds 3000 ft
Scattered Clouds 3700 ft
Scattered Clouds 6500 ft
Heat Index 92 °F
Dew Point 69 °F
Humidity 54%
Rainfall 0.00 in
Snow Depth Not available.
UV 10 out of 12
Pollen 2.60 out of 12
Air Quality Not available.
Flu Activity Sporadic
METAR KFZG 131635Z AUTO 30006KT 10SM SCT030 SCT037 SCT065 31/21 A3017 RMK AO2 T03100208

More Conditions Fewer Conditions

Pressure 30.17 in
Visibility 10.0 miles
Clouds Scattered Clouds 3000 ft
Scattered Clouds 3700 ft
Scattered Clouds 6500 ft
Heat Index 92 °F
Dew Point 69 °F
Humidity 54%
Rainfall 0.00 in
Snow Depth Not available.
UV 10 out of 12
Pollen 2.60 out of 12
Air Quality Not available.
Flu Activity Sporadic
METAR KFZG 131635Z AUTO 30006KT 10SM SCT030 SCT037 SCT065 31/21 A3017 RMK AO2 T03100208

More Conditions Fewer Conditions

10-Day Weather Forecast

Almanac

Astronomy

Jul. 13, 2014 Rise Set
Actual Time 6:37 AM EDT 8:39 PM EDT
Civil Twilight 6:09 AM EDT 9:07 PM EDT
Nautical Twilight 5:36 AM EDT 9:40 PM EDT
Astronomical Twilight 5:00 AM EDT 10:16 PM EDT
Moon 9:37 PM EDT 7:58 AM EDT
Length of Visible Light 14h 57m
Length of Day
14h 02m
Tomorrow will be 0m 55s shorter.
Full, 98% of the Moon is Illuminated
Today
Full
Jul 18
Last Quarter
Jul 26
New
Aug 3
First Quarter
Aug 10
Full

Today's Extremes

State Highs State Lows

Community

WunderPhotos

Upload Photos

1,733,274 photos uploaded!

Nearby

Snow Depth

Station Depth Elevation
No new snow has been reported.

Earthquake Activity

City Distance Mag. Time & Date
No recent earthquake activity has been reported nearby.
Minimum magnitude displayed is 2.5.

Coastal Water Temperatures

Place Temperature
No Stations Reporting

Nearby Weather Stations

Station Location Temp. Heat Index Dew Point Humidity Wind Precip. Elev Updated Type
Forest Lakes, Tifton, GA 87.2 °F 98 °F 76 °F 69% SW  at  2.0 mph 0.00 in / hr 329 ft 12:50 PM EDT Normal
Wood Triple Lake Road, Tifton, GA 89.8 °F 99 °F 74 °F 59% NW  at  2.0 mph 0.00 in / hr 322 ft 12:55 PM EDT Normal
Baymeadows Lake, Douglas, GA 95.4 °F 105 °F 73 °F 48% NW  at  3.6 mph 0.00 in / hr 256 ft 12:58 PM EDT Rapid Fire
APRSWXNET Ashburn GA, Ashburn, GA 92 °F 105 °F 76 °F 60% West  at  0 mph 0.00 in / hr 452 ft 12:03 PM EDT MADIS

Show More Stations Show Fewer Stations